Woody Point, Canada
Current Conditions -  °F | °C
As of 8:00 PM on Wednesday 26 Nov 2014 (Local Time) from CYDF Reporting Station
Broken Clouds Broken Clouds  
Wind Chill: 27°   Ceiling: 3400
Heat Index: 34°   Visibility: 15mi
Dew Point: 23°   Wind: 8mph
Humidity: 65%   Direction: 250°WSW
Pressure: 30.1"   Gusts: NA
Location:  49.5°N, 57.93°W
Report Text: CYDF 262300Z 25007KT 15SM BKN034 BKN180 01/M05 A3010 RMK SC5AC2 SLP193
Loading
Personal Weather Stations






























Interactive Weather Map New forecast layout! Learn more

10-Day Weather Forecast

Advertisements
Track Severe Weather on mobile